sensor_id;sensor_type;location;lat;lon;timestamp;pressure;altitude;pressure_sealevel;temperature;humidity
55113;BME280;41006;50.920;3.456;2023-09-18T00:00:03;74638.09;;;-147.36;100.00
55113;BME280;41006;50.920;3.456;2023-09-18T00:00:38;74646.19;;;-147.36;100.00
55113;BME280;41006;50.920;3.456;2023-09-18T00:01:10;74658.28;;;-147.36;100.00
55113;BME280;41006;50.920;3.456;2023-09-18T00:01:46;74654.25;;;-147.36;100.00
55113;BME280;41006;50.920;3.456;2023-09-18T00:02:17;74656.28;;;-147.36;100.00
55113;BME280;41006;50.920;3.456;2023-09-18T00:02:49;74648.19;;;-147.36;100.00
55113;BME280;41006;50.920;3.456;2023-09-18T00:03:25;74656.28;;;-147.36;100.00
55113;BME280;41006;50.920;3.456;2023-09-18T00:03:55;74652.22;;;-147.36;100.00
55113;BME280;41006;50.920;3.456;2023-09-18T00:04:27;74640.13;;;-147.36;100.00
55113;BME280;41006;50.920;3.456;2023-09-18T00:04:58;74638.09;;;-147.36;100.00
55113;BME280;41006;50.920;3.456;2023-09-18T00:05:28;74628.00;;;-147.36;100.00
55113;BME280;41006;50.920;3.456;2023-09-18T00:06:01;74625.97;;;-147.36;100.00
55113;BME280;41006;50.920;3.456;2023-09-18T00:06:34;74625.97;;;-147.36;100.00
55113;BME280;41006;50.920;3.456;2023-09-18T00:07:04;74628.00;;;-147.36;100.00
55113;BME280;41006;50.920;3.456;2023-09-18T00:07:34;74638.09;;;-147.36;100.00
55113;BME280;41006;50.920;3.456;2023-09-18T00:08:04;74630.03;;;-147.36;100.00
55113;BME280;41006;50.920;3.456;2023-09-18T00:08:38;74632.03;;;-147.36;100.00
55113;BME280;41006;50.920;3.456;2023-09-18T00:09:11;74630.03;;;-147.36;100.00
55113;BME280;41006;50.920;3.456;2023-09-18T00:09:43;74630.03;;;-147.36;100.00
55113;BME280;41006;50.920;3.456;2023-09-18T00:10:18;74634.06;;;-147.36;100.00
55113;BME280;41006;50.920;3.456;2023-09-18T00:10:49;74638.09;;;-147.36;100.00
55113;BME280;41006;50.920;3.456;2023-09-18T00:11:22;74642.13;;;-147.36;100.00
55113;BME280;41006;50.920;3.456;2023-09-18T00:11:53;74636.06;;;-147.36;100.00
55113;BME280;41006;50.920;3.456;2023-09-18T00:12:23;74638.09;;;-147.36;100.00
55113;BME280;41006;50.920;3.456;2023-09-18T00:12:56;74636.06;;;-147.36;100.00
55113;BME280;41006;50.920;3.456;2023-09-18T00:13:28;74638.09;;;-147.36;100.00
55113;BME280;41006;50.920;3.456;2023-09-18T00:13:58;74634.06;;;-147.36;100.00
55113;BME280;41006;50.920;3.456;2023-09-18T00:14:33;74632.03;;;-147.36;100.00
55113;BME280;41006;50.920;3.456;2023-09-18T00:15:06;74634.06;;;-147.36;100.00
55113;BME280;41006;50.920;3.456;2023-09-18T00:15:38;74630.03;;;-147.36;100.00
55113;BME280;41006;50.920;3.456;2023-09-18T00:16:11;74634.06;;;-147.36;100.00
55113;BME280;41006;50.920;3.456;2023-09-18T00:16:45;74634.06;;;-147.36;100.00
55113;BME280;41006;50.920;3.456;2023-09-18T00:17:15;74625.97;;;-147.36;100.00
55113;BME280;41006;50.920;3.456;2023-09-18T00:17:49;74617.91;;;-147.36;100.00
55113;BME280;41006;50.920;3.456;2023-09-18T00:18:19;74621.94;;;-147.36;100.00
55113;BME280;41006;50.920;3.456;2023-09-18T00:18:51;74628.00;;;-147.36;100.00
55113;BME280;41006;50.920;3.456;2023-09-18T00:19:22;74617.91;;;-147.36;100.00
55113;BME280;41006;50.920;3.456;2023-09-18T00:19:52;74623.97;;;-147.36;100.00
55113;BME280;41006;50.920;3.456;2023-09-18T00:20:22;74630.03;;;-147.36;100.00
55113;BME280;41006;50.920;3.456;2023-09-18T00:20:56;74625.97;;;-147.36;100.00
55113;BME280;41006;50.920;3.456;2023-09-18T00:21:29;74623.97;;;-147.36;100.00
55113;BME280;41006;50.920;3.456;2023-09-18T00:22:01;74625.97;;;-147.36;100.00
55113;BME280;41006;50.920;3.456;2023-09-18T00:22:32;74625.97;;;-147.36;100.00
55113;BME280;41006;50.920;3.456;2023-09-18T00:23:02;74621.94;;;-147.36;100.00
55113;BME280;41006;50.920;3.456;2023-09-18T00:23:33;74619.91;;;-147.36;100.00
55113;BME280;41006;50.920;3.456;2023-09-18T00:24:05;74621.94;;;-147.36;100.00
55113;BME280;41006;50.920;3.456;2023-09-18T00:24:35;74617.91;;;-147.36;100.00
55113;BME280;41006;50.920;3.456;2023-09-18T00:25:06;74611.84;;;-147.36;100.00
55113;BME280;41006;50.920;3.456;2023-09-18T00:25:36;74617.91;;;-147.36;100.00
55113;BME280;41006;50.920;3.456;2023-09-18T00:26:15;74625.97;;;-147.36;100.00
55113;BME280;41006;50.920;3.456;2023-09-18T00:26:45;74625.97;;;-147.36;100.00
55113;BME280;41006;50.920;3.456;2023-09-18T00:27:18;74625.97;;;-147.36;100.00
55113;BME280;41006;50.920;3.456;2023-09-18T00:27:50;74625.97;;;-147.36;100.00
55113;BME280;41006;50.920;3.456;2023-09-18T00:28:24;74617.91;;;-147.36;100.00
55113;BME280;41006;50.920;3.456;2023-09-18T00:28:54;74601.75;;;-147.36;100.00
55113;BME280;41006;50.920;3.456;2023-09-18T00:29:24;74601.75;;;-147.36;100.00
55113;BME280;41006;50.920;3.456;2023-09-18T00:29:57;74601.75;;;-147.36;100.00
55113;BME280;41006;50.920;3.456;2023-09-18T00:30:28;74605.78;;;-147.36;100.00
55113;BME280;41006;50.920;3.456;2023-09-18T00:30:58;74601.75;;;-147.36;100.00
55113;BME280;41006;50.920;3.456;2023-09-18T00:31:28;74597.72;;;-147.36;100.00
55113;BME280;41006;50.920;3.456;2023-09-18T00:31:58;74603.75;;;-147.36;100.00
55113;BME280;41006;50.920;3.456;2023-09-18T00:32:29;74609.81;;;-147.36;100.00
55113;BME280;41006;50.920;3.456;2023-09-18T00:32:59;74609.81;;;-147.36;100.00
55113;BME280;41006;50.920;3.456;2023-09-18T00:33:32;74603.75;;;-147.36;100.00
55113;BME280;41006;50.920;3.456;2023-09-18T00:34:05;74597.72;;;-147.36;100.00
55113;BME280;41006;50.920;3.456;2023-09-18T00:34:35;74597.72;;;-147.36;100.00
55113;BME280;41006;50.920;3.456;2023-09-18T00:35:05;74593.66;;;-147.36;100.00
55113;BME280;41006;50.920;3.456;2023-09-18T00:35:38;74587.59;;;-147.36;100.00
55113;BME280;41006;50.920;3.456;2023-09-18T00:36:08;74593.66;;;-147.36;100.00
55113;BME280;41006;50.920;3.456;2023-09-18T00:36:41;74597.72;;;-147.36;100.00
55113;BME280;41006;50.920;3.456;2023-09-18T00:37:11;74603.75;;;-147.36;100.00
55113;BME280;41006;50.920;3.456;2023-09-18T00:37:42;74609.81;;;-147.36;100.00
55113;BME280;41006;50.920;3.456;2023-09-18T00:38:13;74605.78;;;-147.36;100.00
55113;BME280;41006;50.920;3.456;2023-09-18T00:38:43;74605.78;;;-147.36;100.00
55113;BME280;41006;50.920;3.456;2023-09-18T00:39:16;74607.81;;;-147.36;100.00
55113;BME280;41006;50.920;3.456;2023-09-18T00:39:46;74605.78;;;-147.36;100.00
55113;BME280;41006;50.920;3.456;2023-09-18T00:40:17;74601.75;;;-147.36;100.00
55113;BME280;41006;50.920;3.456;2023-09-18T00:40:47;74605.78;;;-147.36;100.00
55113;BME280;41006;50.920;3.456;2023-09-18T00:41:19;74603.75;;;-147.36;100.00
55113;BME280;41006;50.920;3.456;2023-09-18T00:41:52;74597.72;;;-147.36;100.00
55113;BME280;41006;50.920;3.456;2023-09-18T00:42:24;74599.72;;;-147.36;100.00
55113;BME280;41006;50.920;3.456;2023-09-18T00:42:57;74605.78;;;-147.36;100.00
55113;BME280;41006;50.920;3.456;2023-09-18T00:43:27;74601.75;;;-147.36;100.00
55113;BME280;41006;50.920;3.456;2023-09-18T00:43:57;74597.72;;;-147.36;100.00
55113;BME280;41006;50.920;3.456;2023-09-18T00:44:29;74593.66;;;-147.36;100.00
55113;BME280;41006;50.920;3.456;2023-09-18T00:45:00;74593.66;;;-147.36;100.00
55113;BME280;41006;50.920;3.456;2023-09-18T00:45:35;74597.72;;;-147.36;100.00
55113;BME280;41006;50.920;3.456;2023-09-18T00:46:13;74593.66;;;-147.36;100.00
55113;BME280;41006;50.920;3.456;2023-09-18T00:46:46;74597.72;;;-147.36;100.00
55113;BME280;41006;50.920;3.456;2023-09-18T00:47:16;74605.78;;;-147.36;100.00
55113;BME280;41006;50.920;3.456;2023-09-18T00:47:46;74601.75;;;-147.36;100.00
55113;BME280;41006;50.920;3.456;2023-09-18T00:48:19;74605.78;;;-147.36;100.00
55113;BME280;41006;50.920;3.456;2023-09-18T00:48:52;74599.72;;;-147.36;100.00
55113;BME280;41006;50.920;3.456;2023-09-18T00:49:26;74597.72;;;-147.36;100.00
55113;BME280;41006;50.920;3.456;2023-09-18T00:49:56;74591.66;;;-147.36;100.00
55113;BME280;41006;50.920;3.456;2023-09-18T00:50:26;74593.66;;;-147.36;100.00
55113;BME280;41006;50.920;3.456;2023-09-18T00:50:57;74593.66;;;-147.36;100.00
55113;BME280;41006;50.920;3.456;2023-09-18T00:51:27;74597.72;;;-147.36;100.00
55113;BME280;41006;50.920;3.456;2023-09-18T00:51:57;74597.72;;;-147.36;100.00
55113;BME280;41006;50.920;3.456;2023-09-18T00:52:27;74597.72;;;-147.36;100.00
55113;BME280;41006;50.920;3.456;2023-09-18T00:53:00;74597.72;;;-147.36;100.00
55113;BME280;41006;50.920;3.456;2023-09-18T00:53:33;74597.72;;;-147.36;100.00
55113;BME280;41006;50.920;3.456;2023-09-18T00:54:06;74601.75;;;-147.36;100.00
55113;BME280;41006;50.920;3.456;2023-09-18T00:54:37;74597.72;;;-147.36;100.00
55113;BME280;41006;50.920;3.456;2023-09-18T00:55:08;74591.66;;;-147.36;100.00
55113;BME280;41006;50.920;3.456;2023-09-18T00:55:39;74593.66;;;-147.36;100.00
55113;BME280;41006;50.920;3.456;2023-09-18T00:56:09;74595.69;;;-147.36;100.00
55113;BME280;41006;50.920;3.456;2023-09-18T00:56:40;74595.69;;;-147.36;100.00
55113;BME280;41006;50.920;3.456;2023-09-18T00:57:10;74609.81;;;-147.36;100.00
55113;BME280;41006;50.920;3.456;2023-09-18T00:57:41;74615.88;;;-147.36;100.00
55113;BME280;41006;50.920;3.456;2023-09-18T00:58:12;74625.97;;;-147.36;100.00
55113;BME280;41006;50.920;3.456;2023-09-18T00:58:45;74632.03;;;-147.36;100.00
55113;BME280;41006;50.920;3.456;2023-09-18T00:59:19;74634.06;;;-147.36;100.00
55113;BME280;41006;50.920;3.456;2023-09-18T00:59:52;74634.06;;;-147.36;100.00
55113;BME280;41006;50.920;3.456;2023-09-18T01:00:25;74642.13;;;-147.36;100.00
55113;BME280;41006;50.920;3.456;2023-09-18T01:00:55;74642.13;;;-147.36;100.00
55113;BME280;41006;50.920;3.456;2023-09-18T01:01:29;74640.13;;;-147.36;100.00
55113;BME280;41006;50.920;3.456;2023-09-18T01:02:02;74644.16;;;-147.36;100.00
55113;BME280;41006;50.920;3.456;2023-09-18T01:02:32;74654.25;;;-147.36;100.00
55113;BME280;41006;50.920;3.456;2023-09-18T01:03:04;74660.31;;;-147.36;100.00
55113;BME280;41006;50.920;3.456;2023-09-18T01:03:35;74660.31;;;-147.36;100.00
55113;BME280;41006;50.920;3.456;2023-09-18T01:04:05;74668.38;;;-147.36;100.00
55113;BME280;41006;50.920;3.456;2023-09-18T01:04:36;74666.38;;;-147.36;100.00
55113;BME280;41006;50.920;3.456;2023-09-18T01:05:07;74658.28;;;-147.36;100.00
55113;BME280;41006;50.920;3.456;2023-09-18T01:05:37;74654.25;;;-147.36;100.00
55113;BME280;41006;50.920;3.456;2023-09-18T01:06:07;74660.31;;;-147.36;100.00
55113;BME280;41006;50.920;3.456;2023-09-18T01:06:40;74658.28;;;-147.36;100.00
55113;BME280;41006;50.920;3.456;2023-09-18T01:07:12;74658.28;;;-147.36;100.00
55113;BME280;41006;50.920;3.456;2023-09-18T01:07:43;74650.22;;;-147.36;100.00
55113;BME280;41006;50.920;3.456;2023-09-18T01:08:16;74646.19;;;-147.36;100.00
55113;BME280;41006;50.920;3.456;2023-09-18T01:08:47;74642.13;;;-147.36;100.00
55113;BME280;41006;50.920;3.456;2023-09-18T01:09:19;74634.06;;;-147.36;100.00
55113;BME280;41006;50.920;3.456;2023-09-18T01:09:49;74632.03;;;-147.36;100.00
55113;BME280;41006;50.920;3.456;2023-09-18T01:10:21;74630.03;;;-147.36;100.00
55113;BME280;41006;50.920;3.456;2023-09-18T01:10:59;74625.97;;;-147.36;100.00
55113;BME280;41006;50.920;3.456;2023-09-18T01:11:36;74625.97;;;-147.36;100.00
55113;BME280;41006;50.920;3.456;2023-09-18T01:13:04;74623.97;;;-147.36;100.00
55113;BME280;41006;50.920;3.456;2023-09-18T01:13:36;74611.84;;;-147.36;100.00
55113;BME280;41006;50.920;3.456;2023-09-18T01:14:19;74605.78;;;-147.36;100.00
55113;BME280;41006;50.920;3.456;2023-09-18T01:15:33;74601.75;;;-147.36;100.00
55113;BME280;41006;50.920;3.456;2023-09-18T01:16:08;74593.66;;;-147.36;100.00
55113;BME280;41006;50.920;3.456;2023-09-18T01:16:49;74597.72;;;-147.36;100.00
55113;BME280;41006;50.920;3.456;2023-09-18T01:17:20;74595.69;;;-147.36;100.00
55113;BME280;41006;50.920;3.456;2023-09-18T01:17:51;74601.75;;;-147.36;100.00
55113;BME280;41006;50.920;3.456;2023-09-18T01:18:21;74597.72;;;-147.36;100.00
55113;BME280;41006;50.920;3.456;2023-09-18T01:18:54;74589.63;;;-147.36;100.00
55113;BME280;41006;50.920;3.456;2023-09-18T01:19:43;74591.66;;;-147.36;100.00
55113;BME280;41006;50.920;3.456;2023-09-18T01:20:16;74585.59;;;-147.36;100.00
55113;BME280;41006;50.920;3.456;2023-09-18T01:20:50;74579.53;;;-147.36;100.00
55113;BME280;41006;50.920;3.456;2023-09-18T01:21:20;74585.59;;;-147.36;100.00
55113;BME280;41006;50.920;3.456;2023-09-18T01:21:51;74585.59;;;-147.36;100.00
55113;BME280;41006;50.920;3.456;2023-09-18T01:22:21;74589.63;;;-147.36;100.00
55113;BME280;41006;50.920;3.456;2023-09-18T01:22:52;74585.59;;;-147.36;100.00
55113;BME280;41006;50.920;3.456;2023-09-18T01:23:25;74587.59;;;-147.36;100.00
55113;BME280;41006;50.920;3.456;2023-09-18T01:23:55;74593.66;;;-147.36;100.00
55113;BME280;41006;50.920;3.456;2023-09-18T01:24:25;74591.66;;;-147.36;100.00
55113;BME280;41006;50.920;3.456;2023-09-18T01:24:58;74591.66;;;-147.36;100.00
55113;BME280;41006;50.920;3.456;2023-09-18T01:25:30;74593.66;;;-147.36;100.00
55113;BME280;41006;50.920;3.456;2023-09-18T01:26:03;74597.72;;;-147.36;100.00
55113;BME280;41006;50.920;3.456;2023-09-18T01:26:35;74593.66;;;-147.36;100.00
55113;BME280;41006;50.920;3.456;2023-09-18T01:27:09;74597.72;;;-147.36;100.00
55113;BME280;41006;50.920;3.456;2023-09-18T01:27:39;74597.72;;;-147.36;100.00
55113;BME280;41006;50.920;3.456;2023-09-18T01:28:10;74595.69;;;-147.36;100.00
55113;BME280;41006;50.920;3.456;2023-09-18T01:28:40;74597.72;;;-147.36;100.00
55113;BME280;41006;50.920;3.456;2023-09-18T01:29:12;74591.66;;;-147.36;100.00
55113;BME280;41006;50.920;3.456;2023-09-18T01:29:44;74593.66;;;-147.36;100.00
55113;BME280;41006;50.920;3.456;2023-09-18T01:30:14;74593.66;;;-147.36;100.00
55113;BME280;41006;50.920;3.456;2023-09-18T01:30:47;74597.72;;;-147.36;100.00
55113;BME280;41006;50.920;3.456;2023-09-18T01:31:17;74589.63;;;-147.36;100.00
55113;BME280;41006;50.920;3.456;2023-09-18T01:31:50;74593.66;;;-147.36;100.00
55113;BME280;41006;50.920;3.456;2023-09-18T01:32:23;74595.69;;;-147.36;100.00
55113;BME280;41006;50.920;3.456;2023-09-18T01:32:58;74591.66;;;-147.36;100.00
55113;BME280;41006;50.920;3.456;2023-09-18T01:33:31;74587.59;;;-147.36;100.00
55113;BME280;41006;50.920;3.456;2023-09-18T01:34:04;74581.56;;;-147.36;100.00
55113;BME280;41006;50.920;3.456;2023-09-18T01:34:38;74575.50;;;-147.36;100.00
55113;BME280;41006;50.920;3.456;2023-09-18T01:35:11;74575.50;;;-147.36;100.00
55113;BME280;41006;50.920;3.456;2023-09-18T01:35:44;74569.44;;;-147.36;100.00
55113;BME280;41006;50.920;3.456;2023-09-18T01:36:15;74565.41;;;-147.36;100.00
55113;BME280;41006;50.920;3.456;2023-09-18T01:36:46;74569.44;;;-147.36;100.00
55113;BME280;41006;50.920;3.456;2023-09-18T01:37:17;74571.44;;;-147.36;100.00
55113;BME280;41006;50.920;3.456;2023-09-18T01:37:50;74565.41;;;-147.36;100.00
55113;BME280;41006;50.920;3.456;2023-09-18T01:38:21;74573.47;;;-147.36;100.00
55113;BME280;41006;50.920;3.456;2023-09-18T01:38:52;74577.50;;;-147.36;100.00
55113;BME280;41006;50.920;3.456;2023-09-18T01:39:26;74583.56;;;-147.36;100.00
55113;BME280;41006;50.920;3.456;2023-09-18T01:40:01;74589.63;;;-147.36;100.00
55113;BME280;41006;50.920;3.456;2023-09-18T01:40:36;74587.59;;;-147.36;100.00
55113;BME280;41006;50.920;3.456;2023-09-18T01:41:06;74587.59;;;-147.36;100.00
55113;BME280;41006;50.920;3.456;2023-09-18T01:41:37;74593.66;;;-147.36;100.00
55113;BME280;41006;50.920;3.456;2023-09-18T01:42:08;74595.69;;;-147.36;100.00
55113;BME280;41006;50.920;3.456;2023-09-18T01:42:46;74601.75;;;-147.36;100.00
55113;BME280;41006;50.920;3.456;2023-09-18T01:43:17;74587.59;;;-147.36;100.00
55113;BME280;41006;50.920;3.456;2023-09-18T01:43:47;74589.63;;;-147.36;100.00
55113;BME280;41006;50.920;3.456;2023-09-18T01:44:17;74587.59;;;-147.36;100.00
55113;BME280;41006;50.920;3.456;2023-09-18T01:44:47;74581.56;;;-147.36;100.00
55113;BME280;41006;50.920;3.456;2023-09-18T01:45:18;74581.56;;;-147.36;100.00
55113;BME280;41006;50.920;3.456;2023-09-18T01:45:51;74573.47;;;-147.36;100.00
55113;BME280;41006;50.920;3.456;2023-09-18T01:46:22;74573.47;;;-147.36;100.00
55113;BME280;41006;50.920;3.456;2023-09-18T01:46:52;74573.47;;;-147.36;100.00
55113;BME280;41006;50.920;3.456;2023-09-18T01:47:26;74569.44;;;-147.36;100.00
55113;BME280;41006;50.920;3.456;2023-09-18T01:47:59;74575.50;;;-147.36;100.00
55113;BME280;41006;50.920;3.456;2023-09-18T01:48:29;74567.41;;;-147.36;100.00
55113;BME280;41006;50.920;3.456;2023-09-18T01:48:59;74569.44;;;-147.36;100.00
55113;BME280;41006;50.920;3.456;2023-09-18T01:49:33;74567.41;;;-147.36;100.00
55113;BME280;41006;50.920;3.456;2023-09-18T01:50:06;74567.41;;;-147.36;100.00
55113;BME280;41006;50.920;3.456;2023-09-18T01:50:37;74565.41;;;-147.36;100.00
55113;BME280;41006;50.920;3.456;2023-09-18T01:51:07;74569.44;;;-147.36;100.00
55113;BME280;41006;50.920;3.456;2023-09-18T01:51:40;74577.50;;;-147.36;100.00
55113;BME280;41006;50.920;3.456;2023-09-18T01:52:10;74585.59;;;-147.36;100.00
55113;BME280;41006;50.920;3.456;2023-09-18T01:52:43;74593.66;;;-147.36;100.00
55113;BME280;41006;50.920;3.456;2023-09-18T01:53:13;74599.72;;;-147.36;100.00
55113;BME280;41006;50.920;3.456;2023-09-18T01:53:43;74595.69;;;-147.36;100.00
55113;BME280;41006;50.920;3.456;2023-09-18T01:54:14;74595.69;;;-147.36;100.00
55113;BME280;41006;50.920;3.456;2023-09-18T01:54:44;74595.69;;;-147.36;100.00
55113;BME280;41006;50.920;3.456;2023-09-18T01:55:15;74597.72;;;-147.36;100.00
55113;BME280;41006;50.920;3.456;2023-09-18T01:55:45;74617.91;;;-147.36;100.00
55113;BME280;41006;50.920;3.456;2023-09-18T01:56:18;74632.03;;;-147.36;100.00
55113;BME280;41006;50.920;3.456;2023-09-18T01:56:48;74638.09;;;-147.36;100.00
55113;BME280;41006;50.920;3.456;2023-09-18T01:57:21;74638.09;;;-147.36;100.00
55113;BME280;41006;50.920;3.456;2023-09-18T01:57:53;74642.13;;;-147.36;100.00
55113;BME280;41006;50.920;3.456;2023-09-18T01:58:26;74646.19;;;-147.36;100.00
55113;BME280;41006;50.920;3.456;2023-09-18T01:58:58;74644.16;;;-147.36;100.00
55113;BME280;41006;50.920;3.456;2023-09-18T01:59:29;74646.19;;;-147.36;100.00
55113;BME280;41006;50.920;3.456;2023-09-18T01:59:59;74642.13;;;-147.36;100.00
55113;BME280;41006;50.920;3.456;2023-09-18T02:00:34;74648.19;;;-147.36;100.00
55113;BME280;41006;50.920;3.456;2023-09-18T02:01:04;74658.28;;;-147.36;100.00
55113;BME280;41006;50.920;3.456;2023-09-18T02:01:39;74658.28;;;-147.36;100.00
55113;BME280;41006;50.920;3.456;2023-09-18T02:02:09;74654.25;;;-147.36;100.00
55113;BME280;41006;50.920;3.456;2023-09-18T02:02:40;74664.34;;;-147.36;100.00
55113;BME280;41006;50.920;3.456;2023-09-18T02:03:10;74656.28;;;-147.36;100.00
55113;BME280;41006;50.920;3.456;2023-09-18T02:03:41;74654.25;;;-147.36;100.00
55113;BME280;41006;50.920;3.456;2023-09-18T02:04:11;74654.25;;;-147.36;100.00
55113;BME280;41006;50.920;3.456;2023-09-18T02:04:41;74646.19;;;-147.36;100.00
55113;BME280;41006;50.920;3.456;2023-09-18T02:05:14;74646.19;;;-147.36;100.00
55113;BME280;41006;50.920;3.456;2023-09-18T02:05:44;74646.19;;;-147.36;100.00
55113;BME280;41006;50.920;3.456;2023-09-18T02:06:15;74642.13;;;-147.36;100.00
55113;BME280;41006;50.920;3.456;2023-09-18T02:06:46;74648.19;;;-147.36;100.00
55113;BME280;41006;50.920;3.456;2023-09-18T02:07:16;74644.16;;;-147.36;100.00
55113;BME280;41006;50.920;3.456;2023-09-18T02:07:46;74650.22;;;-147.36;100.00
55113;BME280;41006;50.920;3.456;2023-09-18T02:08:21;74654.25;;;-147.36;100.00
55113;BME280;41006;50.920;3.456;2023-09-18T02:08:54;74662.31;;;-147.36;100.00
55113;BME280;41006;50.920;3.456;2023-09-18T02:09:25;74662.31;;;-147.36;100.00
55113;BME280;41006;50.920;3.456;2023-09-18T02:09:59;74670.41;;;-147.36;100.00
55113;BME280;41006;50.920;3.456;2023-09-18T02:10:29;74662.31;;;-147.36;100.00
55113;BME280;41006;50.920;3.456;2023-09-18T02:10:59;74666.38;;;-147.36;100.00
55113;BME280;41006;50.920;3.456;2023-09-18T02:11:29;74674.44;;;-147.36;100.00
55113;BME280;41006;50.920;3.456;2023-09-18T02:12:02;74674.44;;;-147.36;100.00
55113;BME280;41006;50.920;3.456;2023-09-18T02:12:32;74678.50;;;-147.36;100.00
55113;BME280;41006;50.920;3.456;2023-09-18T02:13:05;74674.44;;;-147.36;100.00
55113;BME280;41006;50.920;3.456;2023-09-18T02:13:38;74674.44;;;-147.36;100.00
55113;BME280;41006;50.920;3.456;2023-09-18T02:14:12;74664.34;;;-147.36;100.00
55113;BME280;41006;50.920;3.456;2023-09-18T02:14:43;74658.28;;;-147.36;100.00
55113;BME280;41006;50.920;3.456;2023-09-18T02:15:13;74658.28;;;-147.36;100.00
55113;BME280;41006;50.920;3.456;2023-09-18T02:15:49;74658.28;;;-147.36;100.00
55113;BME280;41006;50.920;3.456;2023-09-18T02:16:22;74654.25;;;-147.36;100.00
55113;BME280;41006;50.920;3.456;2023-09-18T02:16:52;74654.25;;;-147.36;100.00
55113;BME280;41006;50.920;3.456;2023-09-18T02:17:26;74654.25;;;-147.36;100.00
55113;BME280;41006;50.920;3.456;2023-09-18T02:17:59;74648.19;;;-147.36;100.00
55113;BME280;41006;50.920;3.456;2023-09-18T02:18:32;74660.31;;;-147.36;100.00
55113;BME280;41006;50.920;3.456;2023-09-18T02:19:03;74670.41;;;-147.36;100.00
55113;BME280;41006;50.920;3.456;2023-09-18T02:19:33;74676.47;;;-147.36;100.00
55113;BME280;41006;50.920;3.456;2023-09-18T02:20:06;74678.50;;;-147.36;100.00
55113;BME280;41006;50.920;3.456;2023-09-18T02:20:41;74674.44;;;-147.36;100.00
55113;BME280;41006;50.920;3.456;2023-09-18T02:21:20;74678.50;;;-147.36;100.00
55113;BME280;41006;50.920;3.456;2023-09-18T02:21:51;74678.50;;;-147.36;100.00
55113;BME280;41006;50.920;3.456;2023-09-18T02:22:21;74682.53;;;-147.36;100.00
55113;BME280;41006;50.920;3.456;2023-09-18T02:22:54;74682.53;;;-147.36;100.00
55113;BME280;41006;50.920;3.456;2023-09-18T02:23:25;74686.56;;;-147.36;100.00
55113;BME280;41006;50.920;3.456;2023-09-18T02:23:58;74694.66;;;-147.36;100.00
55113;BME280;41006;50.920;3.456;2023-09-18T02:24:28;74694.66;;;-147.36;100.00
55113;BME280;41006;50.920;3.456;2023-09-18T02:24:58;74690.59;;;-147.36;100.00
55113;BME280;41006;50.920;3.456;2023-09-18T02:25:31;74694.66;;;-147.36;100.00
55113;BME280;41006;50.920;3.456;2023-09-18T02:26:06;74688.59;;;-147.36;100.00
55113;BME280;41006;50.920;3.456;2023-09-18T02:26:36;74684.53;;;-147.36;100.00
55113;BME280;41006;50.920;3.456;2023-09-18T02:27:09;74680.50;;;-147.36;100.00
55113;BME280;41006;50.920;3.456;2023-09-18T02:27:42;74682.53;;;-147.36;100.00
55113;BME280;41006;50.920;3.456;2023-09-18T02:28:14;74678.50;;;-147.36;100.00
55113;BME280;41006;50.920;3.456;2023-09-18T02:28:46;74682.53;;;-147.36;100.00
55113;BME280;41006;50.920;3.456;2023-09-18T02:29:16;74686.56;;;-147.36;100.00
55113;BME280;41006;50.920;3.456;2023-09-18T02:29:46;74684.53;;;-147.36;100.00
55113;BME280;41006;50.920;3.456;2023-09-18T02:30:17;74690.59;;;-147.36;100.00
55113;BME280;41006;50.920;3.456;2023-09-18T02:30:49;74686.56;;;-147.36;100.00
55113;BME280;41006;50.920;3.456;2023-09-18T02:31:24;74688.59;;;-147.36;100.00
55113;BME280;41006;50.920;3.456;2023-09-18T02:31:55;74686.56;;;-147.36;100.00
55113;BME280;41006;50.920;3.456;2023-09-18T02:32:25;74686.56;;;-147.36;100.00
55113;BME280;41006;50.920;3.456;2023-09-18T02:32:55;74686.56;;;-147.36;100.00
55113;BME280;41006;50.920;3.456;2023-09-18T02:33:26;74684.53;;;-147.36;100.00
55113;BME280;41006;50.920;3.456;2023-09-18T02:33:58;74682.53;;;-147.36;100.00
55113;BME280;41006;50.920;3.456;2023-09-18T02:34:29;74686.56;;;-147.36;100.00
55113;BME280;41006;50.920;3.456;2023-09-18T02:35:06;74686.56;;;-147.36;100.00
55113;BME280;41006;50.920;3.456;2023-09-18T02:35:37;74694.66;;;-147.36;100.00
55113;BME280;41006;50.920;3.456;2023-09-18T02:36:07;74700.69;;;-147.36;100.00
55113;BME280;41006;50.920;3.456;2023-09-18T02:36:37;74694.66;;;-147.36;100.00
55113;BME280;41006;50.920;3.456;2023-09-18T02:37:07;74704.75;;;-147.36;100.00
55113;BME280;41006;50.920;3.456;2023-09-18T02:37:41;74700.69;;;-147.36;100.00
55113;BME280;41006;50.920;3.456;2023-09-18T02:38:11;74694.66;;;-147.36;100.00
55113;BME280;41006;50.920;3.456;2023-09-18T02:38:42;74698.69;;;-147.36;100.00
55113;BME280;41006;50.920;3.456;2023-09-18T02:39:13;74702.72;;;-147.36;100.00
55113;BME280;41006;50.920;3.456;2023-09-18T02:39:43;74696.66;;;-147.36;100.00
55113;BME280;41006;50.920;3.456;2023-09-18T02:40:15;74690.59;;;-147.36;100.00
55113;BME280;41006;50.920;3.456;2023-09-18T02:40:48;74690.59;;;-147.36;100.00
55113;BME280;41006;50.920;3.456;2023-09-18T02:41:18;74694.66;;;-147.36;100.00
55113;BME280;41006;50.920;3.456;2023-09-18T02:41:51;74698.69;;;-147.36;100.00
55113;BME280;41006;50.920;3.456;2023-09-18T02:42:21;74704.75;;;-147.36;100.00
55113;BME280;41006;50.920;3.456;2023-09-18T02:42:54;74714.84;;;-147.36;100.00
55113;BME280;41006;50.920;3.456;2023-09-18T02:43:27;74718.88;;;-147.36;100.00
55113;BME280;41006;50.920;3.456;2023-09-18T02:44:00;74720.91;;;-147.36;100.00